KEMV

Emporia-Greensville Regional Airport

Emporia, Virginia, USA
METAR KEMV 180138Z AUTO 00000KT 10SM CLR 27/23 A3004 RMK AO2
Observed Flight Rules
Aug-18 @ 01:38 UTC (52 minutes ago) Visual Flight Rules
Visibility Clouds
10 miles
  • Clear skies
Temperatures Readings
Current 27°C / 81°F
Dewpoint 23°C / 73°F
Humidity 79%
Altimeter 30.04" Hg
Pressure 1017 hPa
Elevation 39
METAR KEMV 180138Z AUTO 00000KT 10SM CLR 27/23 A3004 RMK AO2
Observed Flight Rules
Aug-18 @ 01:38 UTC
(52 minutes ago)
VFR
Clouds
  • Clear skies
Temperature Dewpoint
27°C / 81°F 23°C / 73°F
Humidity Altimeter Pressure
79% 30.04" Hg 1017 hPa